sensor_id;sensor_type;location;lat;lon;timestamp;pressure;altitude;pressure_sealevel;temperature;humidity
13420;BME280;6781;58.440;15.470;2022-09-12T00:15:09;100900.41;;;7.94;100.00
13420;BME280;6781;58.440;15.470;2022-09-12T00:17:37;100970.59;;;8.41;100.00
13420;BME280;6781;58.440;15.470;2022-09-12T00:20:06;101008.94;;;8.74;100.00
13420;BME280;6781;58.440;15.470;2022-09-12T00:22:34;100853.78;;;7.82;100.00
13420;BME280;6781;58.440;15.470;2022-09-12T00:25:02;100967.53;;;8.49;100.00
13420;BME280;6781;58.440;15.470;2022-09-12T00:27:30;100857.28;;;7.81;100.00
13420;BME280;6781;58.440;15.470;2022-09-12T00:29:59;100856.56;;;7.79;100.00
13420;BME280;6781;58.440;15.470;2022-09-12T00:32:26;100833.84;;;7.58;100.00
13420;BME280;6781;58.440;15.470;2022-09-12T00:34:53;100859.56;;;7.59;100.00
13420;BME280;6781;58.440;15.470;2022-09-12T00:37:20;100927.22;;;8.05;100.00
13420;BME280;6781;58.440;15.470;2022-09-12T00:39:48;100944.25;;;8.22;100.00
13420;BME280;6781;58.440;15.470;2022-09-12T00:42:17;100873.72;;;7.66;100.00
13420;BME280;6781;58.440;15.470;2022-09-12T00:44:49;100914.78;;;7.98;100.00
13420;BME280;6781;58.440;15.470;2022-09-12T00:47:23;100831.94;;;7.47;100.00
13420;BME280;6781;58.440;15.470;2022-09-12T00:49:59;100873.56;;;7.55;100.00
13420;BME280;6781;58.440;15.470;2022-09-12T00:52:34;100962.16;;;8.11;100.00
13420;BME280;6781;58.440;15.470;2022-09-12T00:55:06;100857.91;;;7.44;100.00
13420;BME280;6781;58.440;15.470;2022-09-12T00:57:49;100921.09;;;7.79;100.00
13420;BME280;6781;58.440;15.470;2022-09-12T01:00:21;100826.63;;;7.22;100.00
13420;BME280;6781;58.440;15.470;2022-09-12T01:03:11;100982.16;;;8.36;100.00
13420;BME280;6781;58.440;15.470;2022-09-12T01:05:45;100826.75;;;7.47;100.00
13420;BME280;6781;58.440;15.470;2022-09-12T01:08:16;100862.50;;;7.53;100.00
13420;BME280;6781;58.440;15.470;2022-09-12T01:10:44;100819.94;;;7.46;100.00
13420;BME280;6781;58.440;15.470;2022-09-12T01:13:26;100821.66;;;7.18;100.00
13420;BME280;6781;58.440;15.470;2022-09-12T01:16:07;100975.25;;;8.22;100.00
13420;BME280;6781;58.440;15.470;2022-09-12T01:19:04;100883.03;;;7.69;100.00
13420;BME280;6781;58.440;15.470;2022-09-12T01:22:02;100824.78;;;7.24;100.00
13420;BME280;6781;58.440;15.470;2022-09-12T01:24:53;100818.78;;;7.23;100.00
13420;BME280;6781;58.440;15.470;2022-09-12T01:27:43;100827.00;;;7.15;100.00
13420;BME280;6781;58.440;15.470;2022-09-12T01:30:46;100828.47;;;7.19;100.00
13420;BME280;6781;58.440;15.470;2022-09-12T01:33:39;100904.53;;;7.69;100.00
13420;BME280;6781;58.440;15.470;2022-09-12T01:36:19;100995.56;;;8.14;100.00
13420;BME280;6781;58.440;15.470;2022-09-12T01:38:57;100824.03;;;7.36;100.00
13420;BME280;6781;58.440;15.470;2022-09-12T01:41:28;100965.94;;;8.20;100.00
13420;BME280;6781;58.440;15.470;2022-09-12T01:44:03;100915.47;;;7.87;100.00
13420;BME280;6781;58.440;15.470;2022-09-12T01:46:42;100933.59;;;8.00;100.00
13420;BME280;6781;58.440;15.470;2022-09-12T01:49:15;100846.25;;;7.24;100.00
13420;BME280;6781;58.440;15.470;2022-09-12T01:51:50;100937.06;;;7.72;100.00
13420;BME280;6781;58.440;15.470;2022-09-12T01:54:24;100979.28;;;8.26;100.00
13420;BME280;6781;58.440;15.470;2022-09-12T01:56:56;100819.97;;;7.32;100.00
13420;BME280;6781;58.440;15.470;2022-09-12T01:59:29;100913.00;;;7.71;100.00
13420;BME280;6781;58.440;15.470;2022-09-12T02:02:17;101040.97;;;8.59;100.00
13420;BME280;6781;58.440;15.470;2022-09-12T02:07:26;100924.06;;;7.73;100.00
13420;BME280;6781;58.440;15.470;2022-09-12T02:10:21;101057.75;;;8.66;100.00
13420;BME280;6781;58.440;15.470;2022-09-12T02:13:07;100973.53;;;7.94;100.00
13420;BME280;6781;58.440;15.470;2022-09-12T02:16:13;100972.88;;;8.05;100.00
13420;BME280;6781;58.440;15.470;2022-09-12T02:22:23;100823.34;;;6.91;100.00
13420;BME280;6781;58.440;15.470;2022-09-12T02:25:04;100841.72;;;6.99;100.00
13420;BME280;6781;58.440;15.470;2022-09-12T02:27:49;100819.66;;;6.81;100.00
13420;BME280;6781;58.440;15.470;2022-09-12T02:30:39;100849.56;;;6.98;100.00
13420;BME280;6781;58.440;15.470;2022-09-12T02:33:45;100825.38;;;6.86;100.00
13420;BME280;6781;58.440;15.470;2022-09-12T02:36:22;101055.53;;;8.33;100.00
13420;BME280;6781;58.440;15.470;2022-09-12T02:38:53;100816.53;;;6.90;100.00
13420;BME280;6781;58.440;15.470;2022-09-12T02:41:35;100815.31;;;6.67;100.00
13420;BME280;6781;58.440;15.470;2022-09-12T02:44:03;100952.72;;;7.69;100.00
13420;BME280;6781;58.440;15.470;2022-09-12T02:46:36;100811.19;;;6.65;100.00
13420;BME280;6781;58.440;15.470;2022-09-12T02:49:07;100803.72;;;6.60;100.00
13420;BME280;6781;58.440;15.470;2022-09-12T02:51:34;100788.97;;;6.48;100.00
13420;BME280;6781;58.440;15.470;2022-09-12T02:54:02;100807.44;;;6.40;100.00
13420;BME280;6781;58.440;15.470;2022-09-12T02:56:31;100868.63;;;6.81;100.00
13420;BME280;6781;58.440;15.470;2022-09-12T02:59:00;100815.69;;;6.61;100.00
13420;BME280;6781;58.440;15.470;2022-09-12T03:01:45;100979.38;;;7.41;100.00
13420;BME280;6781;58.440;15.470;2022-09-12T03:07:15;100965.91;;;7.50;100.00
13420;BME280;6781;58.440;15.470;2022-09-12T03:09:57;100896.06;;;7.10;100.00
13420;BME280;6781;58.440;15.470;2022-09-12T03:12:43;100786.84;;;6.40;100.00
13420;BME280;6781;58.440;15.470;2022-09-12T03:15:22;100819.16;;;6.46;100.00
13420;BME280;6781;58.440;15.470;2022-09-12T03:18:19;100827.16;;;6.56;100.00
13420;BME280;6781;58.440;15.470;2022-09-12T03:21:10;100817.94;;;6.37;100.00
13420;BME280;6781;58.440;15.470;2022-09-12T03:24:05;100816.09;;;6.39;100.00
13420;BME280;6781;58.440;15.470;2022-09-12T03:26:53;101056.56;;;8.02;100.00
13420;BME280;6781;58.440;15.470;2022-09-12T03:29:21;100980.84;;;7.59;100.00
13420;BME280;6781;58.440;15.470;2022-09-12T03:31:53;100825.88;;;6.48;100.00
13420;BME280;6781;58.440;15.470;2022-09-12T03:34:38;100815.56;;;6.48;100.00
13420;BME280;6781;58.440;15.470;2022-09-12T03:37:21;100815.66;;;6.47;100.00
13420;BME280;6781;58.440;15.470;2022-09-12T03:39:48;100822.38;;;6.49;100.00
13420;BME280;6781;58.440;15.470;2022-09-12T03:42:17;100786.84;;;6.40;100.00
13420;BME280;6781;58.440;15.470;2022-09-12T03:44:46;100810.78;;;6.42;100.00
13420;BME280;6781;58.440;15.470;2022-09-12T03:47:13;100786.84;;;6.40;100.00
13420;BME280;6781;58.440;15.470;2022-09-12T03:49:44;100883.38;;;6.93;100.00
13420;BME280;6781;58.440;15.470;2022-09-12T03:52:14;100810.56;;;6.31;100.00
13420;BME280;6781;58.440;15.470;2022-09-12T03:54:49;100965.66;;;7.40;100.00
13420;BME280;6781;58.440;15.470;2022-09-12T03:57:23;100905.75;;;6.93;100.00
13420;BME280;6781;58.440;15.470;2022-09-12T03:59:51;100793.00;;;6.38;100.00
13420;BME280;6781;58.440;15.470;2022-09-12T04:02:20;100905.56;;;7.10;100.00
13420;BME280;6781;58.440;15.470;2022-09-12T04:04:47;101064.56;;;7.98;100.00
13420;BME280;6781;58.440;15.470;2022-09-12T04:07:20;100797.63;;;6.47;100.00
13420;BME280;6781;58.440;15.470;2022-09-12T04:12:52;100958.53;;;7.44;100.00
13420;BME280;6781;58.440;15.470;2022-09-12T04:15:22;100827.00;;;6.59;100.00
13420;BME280;6781;58.440;15.470;2022-09-12T04:17:52;100830.41;;;6.73;100.00
13420;BME280;6781;58.440;15.470;2022-09-12T04:20:32;100827.72;;;6.61;100.00
13420;BME280;6781;58.440;15.470;2022-09-12T04:23:04;100838.16;;;6.88;100.00
13420;BME280;6781;58.440;15.470;2022-09-12T04:25:53;100847.81;;;6.84;100.00
13420;BME280;6781;58.440;15.470;2022-09-12T04:31:48;100947.13;;;7.62;100.00
13420;BME280;6781;58.440;15.470;2022-09-12T04:34:16;101035.88;;;8.02;100.00
13420;BME280;6781;58.440;15.470;2022-09-12T04:36:59;100834.56;;;6.76;100.00
13420;BME280;6781;58.440;15.470;2022-09-12T04:39:31;100951.34;;;7.63;100.00
13420;BME280;6781;58.440;15.470;2022-09-12T04:41:58;100904.09;;;7.20;100.00
13420;BME280;6781;58.440;15.470;2022-09-12T04:44:29;100821.78;;;6.89;100.00
13420;BME280;6781;58.440;15.470;2022-09-12T04:47:06;100850.78;;;6.92;100.00
13420;BME280;6781;58.440;15.470;2022-09-12T04:50:00;100829.22;;;6.79;100.00
13420;BME280;6781;58.440;15.470;2022-09-12T04:52:55;100825.47;;;6.84;100.00
13420;BME280;6781;58.440;15.470;2022-09-12T04:55:34;100842.47;;;7.01;100.00
13420;BME280;6781;58.440;15.470;2022-09-12T05:04:33;100833.16;;;7.13;100.00
13420;BME280;6781;58.440;15.470;2022-09-12T05:07:14;100840.63;;;7.17;100.00
13420;BME280;6781;58.440;15.470;2022-09-12T05:20:08;100828.25;;;7.37;100.00
13420;BME280;6781;58.440;15.470;2022-09-12T05:22:55;100816.63;;;7.44;100.00
13420;BME280;6781;58.440;15.470;2022-09-12T05:31:28;101063.03;;;9.04;100.00
13420;BME280;6781;58.440;15.470;2022-09-12T05:40:31;100853.59;;;7.86;100.00
13420;BME280;6781;58.440;15.470;2022-09-12T05:45:29;100845.69;;;7.74;100.00
13420;BME280;6781;58.440;15.470;2022-09-12T05:48:33;100855.81;;;7.77;100.00
13420;BME280;6781;58.440;15.470;2022-09-12T05:54:38;101086.50;;;9.41;100.00
13420;BME280;6781;58.440;15.470;2022-09-12T06:21:33;100919.78;;;8.55;100.00
13420;BME280;6781;58.440;15.470;2022-09-12T06:32:18;101173.56;;;10.58;100.00
13420;BME280;6781;58.440;15.470;2022-09-12T06:45:08;100974.88;;;9.58;100.00
13420;BME280;6781;58.440;15.470;2022-09-12T06:47:53;100988.63;;;9.71;100.00
13420;BME280;6781;58.440;15.470;2022-09-12T06:53:48;101001.16;;;9.77;100.00
13420;BME280;6781;58.440;15.470;2022-09-12T06:56:33;101206.13;;;11.35;100.00
13420;BME280;6781;58.440;15.470;2022-09-12T06:59:29;100983.94;;;9.89;100.00
13420;BME280;6781;58.440;15.470;2022-09-12T07:31:51;101133.63;;;12.13;100.00
13420;BME280;6781;58.440;15.470;2022-09-12T07:34:19;100999.78;;;11.28;100.00
13420;BME280;6781;58.440;15.470;2022-09-12T07:37:03;101213.28;;;12.81;100.00
13420;BME280;6781;58.440;15.470;2022-09-12T07:39:46;100995.56;;;11.49;100.00
13420;BME280;6781;58.440;15.470;2022-09-12T07:42:30;101010.34;;;11.71;100.00
13420;BME280;6781;58.440;15.470;2022-09-12T07:45:37;101034.00;;;12.01;100.00
13420;BME280;6781;58.440;15.470;2022-09-12T07:51:57;100965.09;;;12.07;100.00
13420;BME280;6781;58.440;15.470;2022-09-12T07:54:40;101179.94;;;13.61;100.00
13420;BME280;6781;58.440;15.470;2022-09-12T07:57:32;101090.78;;;13.26;100.00
13420;BME280;6781;58.440;15.470;2022-09-12T08:00:42;100997.41;;;12.68;100.00
13420;BME280;6781;58.440;15.470;2022-09-12T08:03:30;101171.44;;;14.11;100.00
13420;BME280;6781;58.440;15.470;2022-09-12T08:06:19;100978.25;;;12.90;100.00
13420;BME280;6781;58.440;15.470;2022-09-12T08:18:26;100952.16;;;13.53;100.00
13420;BME280;6781;58.440;15.470;2022-09-12T08:21:00;100953.59;;;13.66;100.00
13420;BME280;6781;58.440;15.470;2022-09-12T08:23:43;100922.63;;;13.83;100.00
13420;BME280;6781;58.440;15.470;2022-09-12T08:26:25;100921.00;;;14.11;100.00
13420;BME280;6781;58.440;15.470;2022-09-12T08:29:06;100925.00;;;14.24;100.00
13420;BME280;6781;58.440;15.470;2022-09-12T08:31:47;100897.38;;;14.12;100.00
13420;BME280;6781;58.440;15.470;2022-09-12T09:29:13;100741.72;;;16.47;100.00
13420;BME280;6781;58.440;15.470;2022-09-12T09:31:57;100942.00;;;17.38;100.00
13420;BME280;6781;58.440;15.470;2022-09-12T09:34:39;100944.44;;;17.66;100.00
13420;BME280;6781;58.440;15.470;2022-09-12T09:37:25;100839.06;;;16.94;100.00
13420;BME280;6781;58.440;15.470;2022-09-12T09:40:14;100861.53;;;17.31;100.00
13420;BME280;6781;58.440;15.470;2022-09-12T09:43:01;100713.13;;;16.62;100.00
13420;BME280;6781;58.440;15.470;2022-09-12T09:45:49;100794.47;;;17.20;100.00
13420;BME280;6781;58.440;15.470;2022-09-12T09:48:36;100809.91;;;17.39;100.00
13420;BME280;6781;58.440;15.470;2022-09-12T09:51:23;100770.06;;;17.28;100.00
13420;BME280;6781;58.440;15.470;2022-09-12T09:54:15;100753.16;;;17.14;100.00
13420;BME280;6781;58.440;15.470;2022-09-12T09:56:57;100819.47;;;17.65;100.00
13420;BME280;6781;58.440;15.470;2022-09-12T09:59:38;100875.78;;;17.86;100.00
13420;BME280;6781;58.440;15.470;2022-09-12T10:02:39;100712.81;;;16.99;100.00
13420;BME280;6781;58.440;15.470;2022-09-12T10:05:06;100885.50;;;18.02;100.00
13420;BME280;6781;58.440;15.470;2022-09-12T10:07:49;100858.22;;;17.87;100.00
13420;BME280;6781;58.440;15.470;2022-09-12T10:10:33;100755.81;;;17.22;100.00
13420;BME280;6781;58.440;15.470;2022-09-12T10:13:24;100885.34;;;18.12;100.00
13420;BME280;6781;58.440;15.470;2022-09-12T10:15:59;100889.09;;;18.09;100.00
13420;BME280;6781;58.440;15.470;2022-09-12T10:18:36;100827.38;;;17.73;100.00
13420;BME280;6781;58.440;15.470;2022-09-12T10:21:20;100860.19;;;17.77;100.00
13420;BME280;6781;58.440;15.470;2022-09-12T10:23:52;100875.63;;;17.96;100.00
13420;BME280;6781;58.440;15.470;2022-09-12T10:26:32;100901.75;;;18.22;100.00
13420;BME280;6781;58.440;15.470;2022-09-12T10:29:04;100826.41;;;17.82;100.00
13420;BME280;6781;58.440;15.470;2022-09-12T10:31:42;100750.25;;;17.41;100.00
13420;BME280;6781;58.440;15.470;2022-09-12T10:34:22;100864.84;;;18.32;100.00
13420;BME280;6781;58.440;15.470;2022-09-12T10:36:54;100777.84;;;17.78;100.00
13420;BME280;6781;58.440;15.470;2022-09-12T10:39:33;100706.63;;;17.40;100.00
13420;BME280;6781;58.440;15.470;2022-09-12T10:42:05;100676.19;;;17.31;100.00
13420;BME280;6781;58.440;15.470;2022-09-12T10:44:36;100742.09;;;17.77;100.00
13420;BME280;6781;58.440;15.470;2022-09-12T10:47:21;100872.53;;;18.49;100.00
13420;BME280;6781;58.440;15.470;2022-09-12T10:49:52;100744.69;;;17.52;100.00
13420;BME280;6781;58.440;15.470;2022-09-12T10:52:22;100792.97;;;18.08;100.00
13420;BME280;6781;58.440;15.470;2022-09-12T10:54:49;100772.94;;;17.91;100.00
13420;BME280;6781;58.440;15.470;2022-09-12T10:57:34;100798.53;;;18.13;100.00
13420;BME280;6781;58.440;15.470;2022-09-12T11:00:09;100867.13;;;18.75;100.00
13420;BME280;6781;58.440;15.470;2022-09-12T11:03:13;100859.06;;;18.52;100.00
13420;BME280;6781;58.440;15.470;2022-09-12T11:05:50;100800.50;;;18.28;100.00
13420;BME280;6781;58.440;15.470;2022-09-12T11:08:47;100778.84;;;18.01;100.00
13420;BME280;6781;58.440;15.470;2022-09-12T11:11:32;100872.22;;;18.36;100.00
13420;BME280;6781;58.440;15.470;2022-09-12T11:14:16;100772.44;;;17.96;100.00
13420;BME280;6781;58.440;15.470;2022-09-12T11:16:55;100863.19;;;18.47;100.00
13420;BME280;6781;58.440;15.470;2022-09-12T11:19:44;100815.41;;;18.51;100.00
13420;BME280;6781;58.440;15.470;2022-09-12T11:22:33;100748.50;;;17.99;100.00
13420;BME280;6781;58.440;15.470;2022-09-12T11:25:13;100750.31;;;17.98;100.00
13420;BME280;6781;58.440;15.470;2022-09-12T11:28:03;100794.59;;;18.17;100.00
13420;BME280;6781;58.440;15.470;2022-09-12T11:30:42;100864.13;;;18.87;100.00
13420;BME280;6781;58.440;15.470;2022-09-12T11:33:25;100742.75;;;17.95;100.00
13420;BME280;6781;58.440;15.470;2022-09-12T11:36:01;100753.72;;;18.15;100.00
13420;BME280;6781;58.440;15.470;2022-09-12T11:38:50;100847.28;;;19.12;100.00
13420;BME280;6781;58.440;15.470;2022-09-12T11:41:23;100831.59;;;18.88;100.00
13420;BME280;6781;58.440;15.470;2022-09-12T11:44:07;100658.44;;;17.90;100.00
13420;BME280;6781;58.440;15.470;2022-09-12T11:46:38;100775.84;;;18.61;100.00
13420;BME280;6781;58.440;15.470;2022-09-12T11:49:27;100776.13;;;18.74;100.00
13420;BME280;6781;58.440;15.470;2022-09-12T11:52:31;100744.59;;;18.74;100.00
13420;BME280;6781;58.440;15.470;2022-09-12T11:55:21;100651.75;;;18.43;100.00
13420;BME280;6781;58.440;15.470;2022-09-12T11:58:01;100845.44;;;19.60;100.00
13420;BME280;6781;58.440;15.470;2022-09-12T12:00:45;100768.34;;;19.20;100.00
13420;BME280;6781;58.440;15.470;2022-09-12T12:03:17;100850.91;;;19.42;100.00
13420;BME280;6781;58.440;15.470;2022-09-12T12:05:52;100834.00;;;19.36;100.00
13420;BME280;6781;58.440;15.470;2022-09-12T12:08:22;100717.38;;;18.51;100.00
13420;BME280;6781;58.440;15.470;2022-09-12T12:10:56;100703.69;;;18.16;100.00
13420;BME280;6781;58.440;15.470;2022-09-12T12:13:27;100708.94;;;18.16;100.00
13420;BME280;6781;58.440;15.470;2022-09-12T12:16:03;100715.97;;;18.24;100.00
13420;BME280;6781;58.440;15.470;2022-09-12T12:18:41;100762.66;;;18.77;100.00
13420;BME280;6781;58.440;15.470;2022-09-12T12:24:25;100851.84;;;19.18;100.00
13420;BME280;6781;58.440;15.470;2022-09-12T12:26:59;100641.31;;;18.18;100.00
13420;BME280;6781;58.440;15.470;2022-09-12T12:29:37;100829.00;;;19.49;100.00
13420;BME280;6781;58.440;15.470;2022-09-12T12:32:36;100734.03;;;18.82;100.00
13420;BME280;6781;58.440;15.470;2022-09-12T12:38:27;100828.91;;;19.74;100.00
13420;BME280;6781;58.440;15.470;2022-09-12T12:47:17;100739.16;;;19.07;100.00
13420;BME280;6781;58.440;15.470;2022-09-12T12:49:51;100826.25;;;19.74;100.00
13420;BME280;6781;58.440;15.470;2022-09-12T12:52:30;100639.47;;;18.74;100.00
13420;BME280;6781;58.440;15.470;2022-09-12T12:55:02;100833.97;;;19.98;100.00
13420;BME280;6781;58.440;15.470;2022-09-12T12:57:46;100745.41;;;19.60;100.00
13420;BME280;6781;58.440;15.470;2022-09-12T13:00:29;100802.53;;;20.20;100.00
13420;BME280;6781;58.440;15.470;2022-09-12T13:03:09;100764.94;;;19.88;100.00
13420;BME280;6781;58.440;15.470;2022-09-12T13:05:41;100808.44;;;20.22;100.00
13420;BME280;6781;58.440;15.470;2022-09-12T13:08:26;100791.00;;;20.21;100.00
13420;BME280;6781;58.440;15.470;2022-09-12T13:11:13;100735.81;;;19.90;100.00
13420;BME280;6781;58.440;15.470;2022-09-12T13:13:48;100806.44;;;20.46;100.00
13420;BME280;6781;58.440;15.470;2022-09-12T13:16:29;100672.03;;;19.65;100.00
13420;BME280;6781;58.440;15.470;2022-09-12T13:19:01;100800.72;;;20.20;100.00
13420;BME280;6781;58.440;15.470;2022-09-12T13:21:30;100765.94;;;20.25;100.00
13420;BME280;6781;58.440;15.470;2022-09-12T13:24:13;100695.94;;;19.78;100.00
13420;BME280;6781;58.440;15.470;2022-09-12T13:26:44;100711.69;;;20.15;100.00
13420;BME280;6781;58.440;15.470;2022-09-12T13:29:15;100671.16;;;19.87;100.00
13420;BME280;6781;58.440;15.470;2022-09-12T13:31:55;100563.47;;;19.25;100.00
13420;BME280;6781;58.440;15.470;2022-09-12T13:40:52;100701.31;;;19.99;100.00
13420;BME280;6781;58.440;15.470;2022-09-12T13:43:37;100714.63;;;19.83;100.00
13420;BME280;6781;58.440;15.470;2022-09-12T13:46:06;100585.38;;;19.03;100.00
13420;BME280;6781;58.440;15.470;2022-09-12T13:48:44;100671.50;;;19.46;100.00
13420;BME280;6781;58.440;15.470;2022-09-12T13:51:26;100646.34;;;19.44;100.00
13420;BME280;6781;58.440;15.470;2022-09-12T13:53:57;100782.53;;;20.48;100.00
13420;BME280;6781;58.440;15.470;2022-09-12T13:56:31;100700.31;;;20.00;100.00
13420;BME280;6781;58.440;15.470;2022-09-12T13:59:12;100557.00;;;18.98;100.00
13420;BME280;6781;58.440;15.470;2022-09-12T14:01:52;100657.22;;;19.64;100.00
13420;BME280;6781;58.440;15.470;2022-09-12T14:04:22;100602.09;;;19.47;100.00
13420;BME280;6781;58.440;15.470;2022-09-12T14:07:12;100715.03;;;20.09;100.00
13420;BME280;6781;58.440;15.470;2022-09-12T14:09:43;100756.81;;;20.65;100.00
13420;BME280;6781;58.440;15.470;2022-09-12T14:12:41;100740.19;;;20.64;100.00
13420;BME280;6781;58.440;15.470;2022-09-12T14:15:16;100546.50;;;19.13;100.00
13420;BME280;6781;58.440;15.470;2022-09-12T14:17:48;100685.56;;;19.76;100.00
13420;BME280;6781;58.440;15.470;2022-09-12T14:20:19;100732.41;;;20.19;100.00
13420;BME280;6781;58.440;15.470;2022-09-12T14:22:48;100698.56;;;19.78;100.00
13420;BME280;6781;58.440;15.470;2022-09-12T14:25:19;100548.09;;;18.53;100.00
13420;BME280;6781;58.440;15.470;2022-09-12T14:27:51;100583.53;;;18.89;100.00
13420;BME280;6781;58.440;15.470;2022-09-12T14:30:23;100714.66;;;19.60;100.00
13420;BME280;6781;58.440;15.470;2022-09-12T14:33:18;100720.13;;;19.50;100.00
13420;BME280;6781;58.440;15.470;2022-09-12T14:35:48;100710.31;;;19.44;100.00
13420;BME280;6781;58.440;15.470;2022-09-12T14:38:23;100715.69;;;19.28;100.00
13420;BME280;6781;58.440;15.470;2022-09-12T14:40:57;100649.97;;;18.74;100.00
13420;BME280;6781;58.440;15.470;2022-09-12T14:43:40;100531.63;;;17.98;100.00
13420;BME280;6781;58.440;15.470;2022-09-12T14:46:15;100721.94;;;19.27;100.00
13420;BME280;6781;58.440;15.470;2022-09-12T14:48:47;100628.69;;;18.53;100.00
13420;BME280;6781;58.440;15.470;2022-09-12T14:51:21;100554.44;;;17.97;100.00
13420;BME280;6781;58.440;15.470;2022-09-12T14:53:53;100521.38;;;17.80;100.00
13420;BME280;6781;58.440;15.470;2022-09-12T14:56:35;100713.09;;;19.20;100.00
13420;BME280;6781;58.440;15.470;2022-09-12T14:59:29;100620.28;;;18.66;100.00
13420;BME280;6781;58.440;15.470;2022-09-12T15:02:25;100483.16;;;17.77;100.00
13420;BME280;6781;58.440;15.470;2022-09-12T15:04:54;100535.09;;;17.90;100.00
13420;BME280;6781;58.440;15.470;2022-09-12T15:07:42;100496.16;;;17.63;100.00
13420;BME280;6781;58.440;15.470;2022-09-12T15:10:17;100469.78;;;17.56;100.00
13420;BME280;6781;58.440;15.470;2022-09-12T15:12:49;100550.50;;;17.93;100.00
13420;BME280;6781;58.440;15.470;2022-09-12T15:15:30;100621.00;;;18.04;100.00
13420;BME280;6781;58.440;15.470;2022-09-12T15:18:51;100480.53;;;17.30;100.00
13420;BME280;6781;58.440;15.470;2022-09-12T15:22:02;100511.94;;;17.38;100.00
13420;BME280;6781;58.440;15.470;2022-09-12T15:46:37;100604.84;;;17.60;100.00
13420;BME280;6781;58.440;15.470;2022-09-12T15:49:21;100705.66;;;18.14;100.00
13420;BME280;6781;58.440;15.470;2022-09-12T15:51:54;100484.03;;;16.74;100.00
13420;BME280;6781;58.440;15.470;2022-09-12T15:54:24;100467.78;;;16.62;100.00
13420;BME280;6781;58.440;15.470;2022-09-12T15:57:06;100679.28;;;17.92;100.00
13420;BME280;6781;58.440;15.470;2022-09-12T15:59:52;100670.44;;;17.84;100.00
13420;BME280;6781;58.440;15.470;2022-09-12T16:12:18;100462.84;;;16.35;100.00
13420;BME280;6781;58.440;15.470;2022-09-12T16:14:47;100620.13;;;17.16;100.00
13420;BME280;6781;58.440;15.470;2022-09-12T16:17:20;100453.34;;;16.25;100.00
13420;BME280;6781;58.440;15.470;2022-09-12T16:20:11;100652.22;;;17.50;100.00
13420;BME280;6781;58.440;15.470;2022-09-12T16:22:56;100437.28;;;16.04;100.00
13420;BME280;6781;58.440;15.470;2022-09-12T16:25:39;100645.34;;;17.41;100.00
13420;BME280;6781;58.440;15.470;2022-09-12T16:41:13;100438.31;;;15.35;100.00
13420;BME280;6781;58.440;15.470;2022-09-12T16:43:54;100597.66;;;16.39;100.00
13420;BME280;6781;58.440;15.470;2022-09-12T16:46:29;100653.69;;;16.54;100.00
13420;BME280;6781;58.440;15.470;2022-09-12T16:49:10;100409.34;;;14.94;100.00
13420;BME280;6781;58.440;15.470;2022-09-12T16:51:53;100421.13;;;14.98;100.00
13420;BME280;6781;58.440;15.470;2022-09-12T16:54:36;100393.88;;;14.75;100.00
13420;BME280;6781;58.440;15.470;2022-09-12T16:57:33;100399.75;;;14.77;100.00
13420;BME280;6781;58.440;15.470;2022-09-12T17:00:01;100417.31;;;14.67;100.00
13420;BME280;6781;58.440;15.470;2022-09-12T17:02:42;100669.16;;;16.05;100.00
13420;BME280;6781;58.440;15.470;2022-09-12T17:05:23;100487.81;;;15.11;100.00
13420;BME280;6781;58.440;15.470;2022-09-12T17:07:52;100621.03;;;15.98;100.00
13420;BME280;6781;58.440;15.470;2022-09-12T17:10:22;100618.22;;;15.91;100.00
13420;BME280;6781;58.440;15.470;2022-09-12T17:12:52;100630.75;;;15.80;100.00
13420;BME280;6781;58.440;15.470;2022-09-12T17:15:20;100532.50;;;15.25;100.00
13420;BME280;6781;58.440;15.470;2022-09-12T17:17:47;100472.94;;;14.68;100.00
13420;BME280;6781;58.440;15.470;2022-09-12T17:20:17;100586.81;;;15.40;100.00
13420;BME280;6781;58.440;15.470;2022-09-12T17:22:45;100390.16;;;14.07;100.00
13420;BME280;6781;58.440;15.470;2022-09-12T17:25:14;100554.41;;;15.07;100.00
13420;BME280;6781;58.440;15.470;2022-09-12T17:27:42;100468.78;;;14.57;100.00
13420;BME280;6781;58.440;15.470;2022-09-12T17:30:11;100547.09;;;14.92;100.00
13420;BME280;6781;58.440;15.470;2022-09-12T17:32:46;100612.75;;;15.33;100.00
13420;BME280;6781;58.440;15.470;2022-09-12T17:35:14;100383.53;;;13.94;100.00
13420;BME280;6781;58.440;15.470;2022-09-12T17:37:42;100631.41;;;15.38;100.00
13420;BME280;6781;58.440;15.470;2022-09-12T17:40:29;100526.88;;;14.77;100.00
13420;BME280;6781;58.440;15.470;2022-09-12T17:43:10;100387.13;;;13.76;100.00
13420;BME280;6781;58.440;15.470;2022-09-12T18:11:35;100513.25;;;14.38;100.00
13420;BME280;6781;58.440;15.470;2022-09-12T18:14:03;100587.59;;;14.79;100.00
13420;BME280;6781;58.440;15.470;2022-09-12T18:16:45;100422.94;;;13.74;100.00
13420;BME280;6781;58.440;15.470;2022-09-12T18:19:29;100341.22;;;13.10;100.00
13420;BME280;6781;58.440;15.470;2022-09-12T18:22:11;100378.94;;;13.43;100.00
13420;BME280;6781;58.440;15.470;2022-09-12T18:24:54;100389.88;;;13.47;100.00
13420;BME280;6781;58.440;15.470;2022-09-12T18:27:38;100517.25;;;14.14;100.00
13420;BME280;6781;58.440;15.470;2022-09-12T18:30:14;100506.72;;;14.06;100.00
13420;BME280;6781;58.440;15.470;2022-09-12T18:32:55;100433.94;;;13.67;100.00
13420;BME280;6781;58.440;15.470;2022-09-12T18:35:24;100440.25;;;13.65;100.00
13420;BME280;6781;58.440;15.470;2022-09-12T18:38:17;100473.75;;;13.87;100.00
13420;BME280;6781;58.440;15.470;2022-09-12T18:41:03;100622.94;;;14.55;100.00